Time;durP1;ratioP1;P1;durP2;ratioP2;P2;SDS_P1;SDS_P2;PMS_P1;PMS_P2;Temp;Humidity;BMP_temperature;BMP_pressure;BME280_temperature;BME280_humidity;BME280_pressure;Samples;Min_cycle;Max_cycle;Signal;HPM_P1;HPM_P2
2021/08/28 00:01:33;;;;;;;9.40;6.10;;;;;;;11.32;68.53;99853.55;137336;1202;96285;-71
2021/08/28 00:04:39;;;;;;;8.80;6.10;;;;;;;11.35;68.24;99855.55;137193;1202;111008;-71
2021/08/28 00:07:44;;;;;;;7.60;6.00;;;;;;;11.37;68.22;99852.48;137211;1201;96423;-70
2021/08/28 00:10:50;;;;;;;9.40;6.60;;;;;;;11.37;68.20;99850.52;137235;1202;96471;-71
2021/08/28 00:13:55;;;;;;;7.70;6.00;;;;;;;11.32;68.57;99849.67;137207;1202;110438;-70
2021/08/28 00:17:01;;;;;;;8.20;6.00;;;;;;;11.30;68.21;99853.86;137197;1201;97240;-70
2021/08/28 00:20:10;;;;;;;7.90;6.20;;;;;;;11.27;68.27;99856.46;137194;1201;110657;-71
2021/08/28 00:23:15;;;;;;;9.20;6.80;;;;;;;11.24;68.16;99856.83;137350;1201;97298;-71
2021/08/28 00:26:20;;;;;;;9.90;5.90;;;;;;;11.17;68.52;99855.86;137314;1202;96357;-72
2021/08/28 00:29:26;;;;;;;8.30;5.60;;;;;;;11.15;68.54;99854.86;137179;1202;108692;-70
2021/08/28 00:32:31;;;;;;;10.40;6.20;;;;;;;11.15;68.56;99854.52;137303;1202;96794;-71
2021/08/28 00:35:37;;;;;;;8.40;6.20;;;;;;;11.18;68.53;99854.58;137210;1202;110966;-71
2021/08/28 00:38:42;;;;;;;8.40;5.60;;;;;;;11.23;68.66;99856.73;137354;1194;97749;-71
2021/08/28 00:41:47;;;;;;;8.20;6.00;;;;;;;11.25;68.57;99858.95;137216;1201;97303;-71
2021/08/28 00:44:54;;;;;;;9.20;6.60;;;;;;;11.23;68.63;99858.13;137222;1202;108554;-71
2021/08/28 00:48:00;;;;;;;9.90;6.00;;;;;;;11.21;68.66;99860.99;137197;1202;97229;-71
2021/08/28 00:51:06;;;;;;;8.20;5.70;;;;;;;11.18;68.73;99856.35;137297;1201;110906;-70
2021/08/28 00:54:12;;;;;;;8.80;5.60;;;;;;;11.12;68.95;99853.55;137189;1202;97670;-71
2021/08/28 00:57:20;;;;;;;8.50;5.00;;;;;;;11.08;68.77;99854.55;137215;1201;96921;-71
2021/08/28 01:00:26;;;;;;;7.00;4.80;;;;;;;11.05;68.85;99855.25;137204;1201;108471;-71
2021/08/28 01:03:34;;;;;;;7.80;5.70;;;;;;;11.06;68.76;99851.28;137227;1201;97679;-71
2021/08/28 01:06:48;;;;;;;8.50;5.50;;;;;;;11.09;68.70;99854.52;137195;1202;110798;-71
2021/08/28 01:10:19;;;;;;;7.60;5.60;;;;;;;11.09;68.51;99858.92;137322;1202;97242;-70
2021/08/28 01:13:50;;;;;;;7.30;5.00;;;;;;;11.06;68.66;99856.95;137356;1202;97275;-71
2021/08/28 01:16:59;;;;;;;6.90;5.20;;;;;;;11.05;68.80;99856.91;137355;1201;108704;-72
2021/08/28 01:20:10;;;;;;;7.10;4.60;;;;;;;11.03;68.68;99857.33;137415;1195;97679;-71
2021/08/28 01:23:38;;;;;;;7.00;4.90;;;;;;;10.94;69.04;99856.58;137303;1202;110948;-70
2021/08/28 01:27:04;;;;;;;6.80;4.90;;;;;;;10.91;69.15;99863.75;137254;1202;97651;-71
2021/08/28 01:30:12;;;;;;;8.10;4.70;;;;;;;10.88;69.14;99866.34;137226;1203;96439;-73
2021/08/28 01:33:21;;;;;;;5.50;4.10;;;;;;;10.86;69.15;99867.11;137323;1196;108624;-73
2021/08/28 01:36:27;;;;;;;8.10;4.60;;;;;;;10.88;69.16;99867.60;137371;1198;97337;-73
2021/08/28 01:39:42;;;;;;;8.40;4.70;;;;;;;10.89;68.88;99870.65;137317;1196;110719;-72
2021/08/28 01:42:50;;;;;;;9.00;4.80;;;;;;;10.92;69.11;99873.48;137402;1202;97285;-73
2021/08/28 01:45:55;;;;;;;8.80;4.70;;;;;;;10.93;68.94;99876.49;137363;1202;97178;-73
2021/08/28 01:49:01;;;;;;;7.70;4.30;;;;;;;10.90;69.20;99873.36;137311;1202;108512;-72
2021/08/28 01:52:08;;;;;;;5.60;4.40;;;;;;;10.87;69.33;99869.48;137369;1202;97659;-72
2021/08/28 01:55:17;;;;;;;6.50;4.30;;;;;;;10.84;69.11;99875.29;137314;1196;110912;-72
2021/08/28 01:58:36;;;;;;;6.60;4.50;;;;;;;10.82;69.06;99871.41;137294;1202;96377;-72
2021/08/28 02:02:00;;;;;;;7.40;4.80;;;;;;;10.78;68.96;99872.70;137333;1198;97650;-72
2021/08/28 02:05:13;;;;;;;6.00;4.20;;;;;;;10.74;69.24;99869.21;137257;1203;108677;-72
2021/08/28 02:08:27;;;;;;;5.60;3.80;;;;;;;10.71;69.02;99869.77;137290;1202;97664;-73
2021/08/28 02:11:39;;;;;;;6.00;4.30;;;;;;;10.70;69.33;99869.90;137291;1202;110953;-72
2021/08/28 02:14:51;;;;;;;7.70;4.30;;;;;;;10.71;69.36;99875.80;137379;1202;97768;-70
2021/08/28 02:18:05;;;;;;;5.00;4.00;;;;;;;10.72;69.30;99881.23;137181;1202;97235;-70
2021/08/28 02:21:22;;;;;;;6.30;4.20;;;;;;;10.72;69.32;99878.33;137350;1199;108544;-71
2021/08/28 02:24:31;;;;;;;5.60;4.10;;;;;;;10.74;69.42;99882.98;137251;1202;96303;-71
2021/08/28 02:27:44;;;;;;;5.20;3.90;;;;;;;10.73;69.79;99878.75;137165;1202;110804;-71
2021/08/28 02:30:51;;;;;;;6.70;3.90;;;;;;;10.72;69.48;99874.61;137353;1202;97256;-71
2021/08/28 02:33:58;;;;;;;5.70;4.00;;;;;;;10.66;69.43;99878.64;137305;1196;97668;-72
2021/08/28 02:37:06;;;;;;;5.20;3.70;;;;;;;10.60;69.47;99877.63;137341;1202;108590;-71
2021/08/28 02:40:15;;;;;;;5.80;3.00;;;;;;;10.59;69.71;99877.95;137354;1202;97656;-70
2021/08/28 02:43:22;;;;;;;5.30;3.60;;;;;;;10.60;69.12;99881.23;137209;1202;110900;-70
2021/08/28 02:46:29;;;;;;;5.50;3.70;;;;;;;10.56;69.30;99881.23;137208;1203;96447;-71
2021/08/28 02:49:41;;;;;;;4.10;3.40;;;;;;;10.54;69.52;99880.27;137234;1202;96349;-71
2021/08/28 02:52:53;;;;;;;5.30;3.50;;;;;;;10.48;69.25;99879.60;137345;1202;108577;-70
2021/08/28 02:56:01;;;;;;;4.50;3.80;;;;;;;10.44;69.56;99877.95;137226;1203;96769;-71
2021/08/28 02:59:11;;;;;;;6.80;4.10;;;;;;;10.42;69.62;99880.10;137308;1202;110745;-72
2021/08/28 03:02:19;;;;;;;6.00;3.50;;;;;;;10.39;69.50;99877.77;137346;1202;96484;-71
2021/08/28 03:05:25;;;;;;;4.80;3.60;;;;;;;10.33;69.39;99876.41;137363;1202;97265;-71
2021/08/28 03:08:34;;;;;;;5.20;3.90;;;;;;;10.30;69.73;99871.61;137289;1202;108634;-72
2021/08/28 03:11:40;;;;;;;5.60;3.60;;;;;;;10.28;69.71;99867.52;137343;1202;96326;-71
2021/08/28 03:14:47;;;;;;;4.80;3.50;;;;;;;10.31;69.99;99870.08;137263;1202;110525;-72
2021/08/28 03:17:53;;;;;;;6.40;4.00;;;;;;;10.34;69.74;99870.64;137343;1197;97714;-72
2021/08/28 03:21:00;;;;;;;5.50;3.50;;;;;;;10.35;69.39;99869.77;137367;1202;97237;-72
2021/08/28 03:24:06;;;;;;;4.30;3.70;;;;;;;10.33;69.75;99872.16;137391;1202;108686;-71
2021/08/28 03:27:14;;;;;;;6.90;3.80;;;;;;;10.32;69.79;99873.66;137295;1203;97664;-72
2021/08/28 03:30:21;;;;;;;4.60;3.60;;;;;;;10.34;69.86;99872.91;137327;1196;110574;-71
2021/08/28 03:33:29;;;;;;;6.00;3.80;;;;;;;10.36;69.85;99875.88;137293;1202;96389;-72
2021/08/28 03:36:37;;;;;;;5.10;3.70;;;;;;;10.34;69.94;99877.08;137344;1202;97272;-71
2021/08/28 03:39:45;;;;;;;5.60;3.60;;;;;;;10.32;69.95;99878.50;137360;1202;107979;-71
2021/08/28 03:42:50;;;;;;;4.70;3.20;;;;;;;10.32;69.95;99881.84;137330;1202;96406;-70
2021/08/28 03:45:57;;;;;;;3.70;2.90;;;;;;;10.33;70.02;99880.50;137140;1203;110805;-70
2021/08/28 03:49:03;;;;;;;3.90;3.10;;;;;;;10.36;70.17;99884.42;137278;1202;97758;-70
2021/08/28 03:52:11;;;;;;;3.70;3.40;;;;;;;10.40;70.25;99876.90;137223;1202;97721;-71
2021/08/28 03:55:18;;;;;;;4.90;3.60;;;;;;;10.43;70.11;99878.38;137202;1202;108835;-71
2021/08/28 03:58:25;;;;;;;7.30;3.70;;;;;;;10.47;70.02;99877.78;137319;1202;97687;-72
2021/08/28 04:01:31;;;;;;;4.30;3.50;;;;;;;10.50;70.04;99866.40;137378;1202;110974;-72
2021/08/28 04:04:38;;;;;;;4.40;3.30;;;;;;;10.55;69.88;99865.04;137375;1203;96345;-73
2021/08/28 04:07:44;;;;;;;5.40;3.90;;;;;;;10.60;70.08;99861.98;137384;1202;97660;-74
2021/08/28 04:10:50;;;;;;;5.10;3.90;;;;;;;10.64;69.84;99861.39;137359;1202;108438;-73
2021/08/28 04:14:00;;;;;;;7.00;4.20;;;;;;;10.68;70.48;99861.36;137262;1202;97289;-72
2021/08/28 04:17:06;;;;;;;9.80;4.60;;;;;;;10.75;70.78;99863.80;137317;1202;110915;-71
2021/08/28 04:20:14;;;;;;;7.90;5.40;;;;;;;10.84;70.97;99866.71;137386;1202;97246;-73
2021/08/28 04:23:20;;;;;;;8.10;5.60;;;;;;;10.97;71.22;99865.18;137309;1202;96356;-72
2021/08/28 04:26:51;;;;;;;8.10;5.70;;;;;;;11.14;71.86;99874.25;137280;1203;108744;-72
2021/08/28 04:29:56;;;;;;;6.30;5.50;;;;;;;11.25;72.00;99873.75;137296;1202;97295;-71
2021/08/28 04:33:15;;;;;;;6.60;5.50;;;;;;;11.37;71.62;99876.19;137297;1203;111269;-71
2021/08/28 04:36:21;;;;;;;7.20;5.30;;;;;;;11.49;71.97;99874.05;137327;1197;97269;-71
2021/08/28 04:39:27;;;;;;;6.30;5.00;;;;;;;11.62;72.22;99879.88;137317;1195;97664;-72
2021/08/28 04:42:35;;;;;;;6.90;5.50;;;;;;;11.75;72.24;99883.72;137318;1202;108723;-71
2021/08/28 04:45:40;;;;;;;7.10;5.60;;;;;;;11.89;72.26;99882.30;137188;1202;97279;-71
2021/08/28 04:48:59;;;;;;;6.70;5.60;;;;;;;12.01;72.32;99886.08;137255;1203;110682;-70
2021/08/28 04:52:35;;;;;;;7.30;6.00;;;;;;;12.10;72.67;99899.15;137336;1201;96341;-71
2021/08/28 04:55:41;;;;;;;9.40;5.50;;;;;;;12.17;72.44;99902.85;137236;1202;96289;-72
2021/08/28 04:58:47;;;;;;;5.80;4.80;;;;;;;12.27;72.49;99903.20;137354;1202;108700;-70
2021/08/28 05:02:11;;;;;;;6.70;4.80;;;;;;;12.42;72.59;99907.44;137373;1201;97295;-72
2021/08/28 05:05:25;;;;;;;6.20;4.30;;;;;;;12.54;72.58;99906.84;137222;1204;110882;-73
2021/08/28 05:08:30;;;;;;;6.00;4.90;;;;;;;12.66;72.34;99907.49;137356;1202;97262;-73
2021/08/28 05:11:37;;;;;;;8.30;4.80;;;;;;;12.73;72.46;99908.49;137322;1202;96455;-72
2021/08/28 05:14:42;;;;;;;6.60;4.10;;;;;;;12.81;72.37;99908.28;137356;1195;108517;-73
2021/08/28 05:17:49;;;;;;;5.30;4.50;;;;;;;12.91;72.34;99908.16;137319;1202;96362;-72
2021/08/28 05:20:56;;;;;;;8.40;5.60;;;;;;;13.05;72.36;99910.41;137335;1203;110790;-73
2021/08/28 05:24:25;;;;;;;6.90;5.40;;;;;;;13.19;72.37;99908.20;137357;1201;97682;-72
2021/08/28 05:27:32;;;;;;;5.80;4.20;;;;;;;13.33;72.30;99912.41;137380;1202;97749;-73
2021/08/28 05:30:38;;;;;;;5.60;4.40;;;;;;;13.45;72.18;99914.88;137331;1194;108702;-71
2021/08/28 05:33:43;;;;;;;7.10;5.00;;;;;;;13.52;72.20;99917.27;137294;1200;97235;-72
2021/08/28 05:36:51;;;;;;;6.50;5.10;;;;;;;13.56;72.11;99918.53;137363;1202;110369;-72
2021/08/28 05:40:23;;;;;;;6.70;4.90;;;;;;;13.61;72.37;99918.56;137311;1202;96403;-71
2021/08/28 05:43:29;;;;;;;5.20;4.70;;;;;;;13.65;72.40;99918.33;137300;1201;97256;-74
2021/08/28 05:46:37;;;;;;;7.40;5.40;;;;;;;13.73;72.35;99915.79;137283;1203;108533;-72
2021/08/28 05:49:49;;;;;;;5.80;5.00;;;;;;;13.87;72.61;99911.55;137378;1202;97644;-72
2021/08/28 05:52:59;;;;;;;8.00;5.80;;;;;;;14.00;72.47;99909.39;137326;1202;110793;-72
2021/08/28 05:56:05;;;;;;;8.00;6.00;;;;;;;14.14;72.71;99908.23;137188;1201;97682;-72
2021/08/28 05:59:11;;;;;;;9.40;6.30;;;;;;;14.25;72.67;99905.13;137377;1202;96444;-72
2021/08/28 06:02:16;;;;;;;7.30;6.50;;;;;;;14.35;72.74;99907.64;137363;1201;107442;-72
2021/08/28 06:05:22;;;;;;;7.10;6.00;;;;;;;14.43;72.63;99906.02;137279;1201;96462;-70
2021/08/28 06:08:46;;;;;;;6.60;5.80;;;;;;;14.50;73.01;99902.67;137173;1201;110438;-71
2021/08/28 06:12:27;;;;;;;7.80;6.60;;;;;;;14.58;73.11;99904.75;137164;1204;97507;-71
2021/08/28 06:15:51;;;;;;;8.70;6.50;;;;;;;14.69;73.06;99906.29;137318;1203;97682;-70
2021/08/28 06:18:58;;;;;;;7.80;7.00;;;;;;;14.77;73.09;99907.61;137230;1202;108604;-70
2021/08/28 06:22:05;;;;;;;9.60;7.10;;;;;;;14.84;73.01;99910.35;137293;1202;97383;-72
2021/08/28 06:25:12;;;;;;;7.50;6.50;;;;;;;14.90;72.90;99908.92;137181;1201;110681;-71
2021/08/28 06:28:17;;;;;;;8.20;6.20;;;;;;;14.95;73.15;99900.21;137204;1202;97668;-72
2021/08/28 06:31:23;;;;;;;7.70;6.40;;;;;;;15.04;72.96;99902.67;137330;1204;96374;-71
2021/08/28 06:34:28;;;;;;;8.80;6.70;;;;;;;15.17;73.09;99907.34;137339;1203;108452;-70
2021/08/28 06:37:34;;;;;;;10.00;7.30;;;;;;;15.21;72.91;99906.14;137237;1203;97759;-70
2021/08/28 06:40:58;;;;;;;8.10;6.80;;;;;;;15.28;73.29;99902.58;137181;1202;110635;-69
2021/08/28 06:44:26;;;;;;;10.40;6.50;;;;;;;15.35;73.07;99903.09;137203;1202;96353;-69
2021/08/28 06:47:50;;;;;;;7.60;6.20;;;;;;;15.47;72.92;99900.84;137162;1202;96447;-70
2021/08/28 06:51:25;;;;;;;7.70;6.60;;;;;;;15.54;72.72;99897.35;137219;1202;108614;-72
2021/08/28 06:54:50;;;;;;;10.10;6.60;;;;;;;15.55;72.84;99898.13;137327;1201;97662;-70
2021/08/28 06:58:14;;;;;;;8.80;7.10;;;;;;;15.60;72.95;99899.41;137150;1200;110912;-71
2021/08/28 07:01:38;;;;;;;7.90;6.60;;;;;;;15.66;72.65;99902.27;137184;1201;97225;-71
2021/08/28 07:05:12;;;;;;;8.80;6.90;;;;;;;15.67;72.62;99904.23;137348;1203;97675;-71
2021/08/28 07:08:23;;;;;;;11.60;6.40;;;;;;;15.73;72.83;99903.77;137360;1195;108924;-69
2021/08/28 07:11:28;;;;;;;7.40;6.10;;;;;;;15.84;72.79;99904.44;137169;1203;96332;-70
2021/08/28 07:14:34;;;;;;;9.30;6.70;;;;;;;16.00;72.95;99909.83;137203;1201;110776;-70
2021/08/28 07:17:40;;;;;;;9.50;7.30;;;;;;;16.21;72.50;99911.25;137202;1201;96962;-70
2021/08/28 07:20:46;;;;;;;7.70;6.90;;;;;;;16.32;72.31;99909.52;137215;1203;97645;-70
2021/08/28 07:23:55;;;;;;;8.00;6.50;;;;;;;16.41;72.18;99908.04;137187;1201;108730;-69
2021/08/28 07:27:09;;;;;;;9.50;7.30;;;;;;;16.42;71.08;99908.88;137196;1202;96353;-70
2021/08/28 07:30:42;;;;;;;10.30;6.90;;;;;;;16.35;71.54;99908.34;137098;1202;110788;-71
2021/08/28 07:33:48;;;;;;;7.20;6.20;;;;;;;16.38;70.97;99909.14;137176;1202;97738;-70
2021/08/28 07:36:55;;;;;;;8.20;6.20;;;;;;;16.39;70.84;99904.51;137205;1202;96465;-69
2021/08/28 07:40:00;;;;;;;7.60;6.80;;;;;;;16.44;71.38;99902.89;137215;1201;108534;-69
2021/08/28 07:43:07;;;;;;;8.20;6.80;;;;;;;16.55;70.84;99905.58;137244;1202;97655;-70
2021/08/28 07:46:17;;;;;;;13.00;8.70;;;;;;;16.63;70.89;99904.23;137201;1201;110812;-70
2021/08/28 07:49:29;;;;;;;8.40;6.60;;;;;;;16.68;70.13;99904.92;137166;1202;97296;-72
2021/08/28 07:52:39;;;;;;;7.90;7.00;;;;;;;16.77;70.41;99903.30;137327;1202;96359;-72
2021/08/28 07:55:46;;;;;;;8.20;6.70;;;;;;;16.96;70.49;99901.14;137334;1203;108566;-72
2021/08/28 07:58:52;;;;;;;7.50;6.10;;;;;;;17.11;70.38;99903.88;137313;1201;96397;-70
2021/08/28 08:01:58;;;;;;;8.50;6.40;;;;;;;17.25;70.02;99902.94;137307;1202;110902;-70
2021/08/28 08:05:06;;;;;;;8.30;6.80;;;;;;;17.37;70.28;99903.75;137445;1200;97643;-73
2021/08/28 08:08:50;;;;;;;6.20;5.60;;;;;;;17.45;69.83;99902.55;137386;1202;97656;-74
2021/08/28 08:12:28;;;;;;;7.70;6.30;;;;;;;17.61;70.19;99906.20;137252;1204;108589;-73
2021/08/28 08:15:52;;;;;;;7.50;6.40;;;;;;;17.74;69.25;99903.17;137380;1202;96342;-74
2021/08/28 08:19:18;;;;;;;6.00;5.30;;;;;;;17.83;69.56;99901.64;137249;1195;111202;-73
2021/08/28 08:22:43;;;;;;;6.80;5.50;;;;;;;17.94;68.23;99899.57;137377;1202;96444;-75
2021/08/28 08:26:08;;;;;;;7.00;6.30;;;;;;;17.89;67.66;99897.29;137344;1196;96515;-73
2021/08/28 08:29:32;;;;;;;6.30;5.60;;;;;;;17.85;67.85;99891.40;137343;1201;106978;-71
2021/08/28 08:32:57;;;;;;;7.10;5.60;;;;;;;17.84;67.64;99896.56;137327;1201;97664;-72
2021/08/28 08:36:06;;;;;;;6.50;5.00;;;;;;;17.92;67.87;99894.80;137303;1201;110825;-72
2021/08/28 08:39:12;;;;;;;5.90;5.10;;;;;;;17.93;66.40;99896.91;137343;1203;97239;-73
2021/08/28 08:42:21;;;;;;;7.40;6.30;;;;;;;17.88;66.20;99893.98;137323;1200;97294;-72
2021/08/28 08:45:28;;;;;;;7.80;5.50;;;;;;;17.89;66.92;99890.64;137344;1201;109095;-74
2021/08/28 08:48:34;;;;;;;6.40;5.50;;;;;;;18.01;67.49;99892.07;137341;1202;96416;-74
2021/08/28 08:51:41;;;;;;;5.50;5.00;;;;;;;18.15;67.01;99894.23;137369;1202;110920;-65
2021/08/28 08:54:47;;;;;;;5.90;5.30;;;;;;;18.23;67.14;99894.77;137251;1202;97676;-64
2021/08/28 08:57:54;;;;;;;5.30;4.60;;;;;;;18.32;67.06;99893.30;137198;1202;97278;-65
2021/08/28 09:01:02;;;;;;;7.50;5.00;;;;;;;18.42;66.97;99893.91;137225;1202;108502;-64
2021/08/28 09:04:13;;;;;;;5.60;4.30;;;;;;;18.48;66.58;99898.77;137182;1202;97280;-65
2021/08/28 09:07:20;;;;;;;5.10;4.00;;;;;;;18.55;66.76;99901.19;137208;1201;110949;-66
2021/08/28 09:10:25;;;;;;;5.40;3.90;;;;;;;18.66;67.02;99895.31;137282;1202;97258;-65
2021/08/28 09:13:30;;;;;;;6.20;3.20;;;;;;;18.77;66.68;99896.52;137141;1202;97737;-64
2021/08/28 09:16:36;;;;;;;5.30;2.90;;;;;;;18.81;65.33;99898.05;137175;1201;108510;-64
2021/08/28 09:19:42;;;;;;;4.00;2.60;;;;;;;18.85;64.97;99897.10;137247;1202;96465;-72
2021/08/28 09:22:48;;;;;;;3.30;2.20;;;;;;;18.94;65.51;99892.34;137293;1202;110946;-70
2021/08/28 09:25:54;;;;;;;3.60;2.80;;;;;;;19.06;64.13;99893.94;137236;1202;97288;-66
2021/08/28 09:29:00;;;;;;;2.80;2.50;;;;;;;19.07;63.63;99892.72;137207;1202;97923;-65
2021/08/28 09:32:06;;;;;;;3.20;2.60;;;;;;;19.07;64.65;99888.84;137275;1201;108594;-66
2021/08/28 09:35:13;;;;;;;4.60;3.00;;;;;;;19.15;63.43;99898.08;137235;1201;96318;-66
2021/08/28 09:38:20;;;;;;;4.00;2.40;;;;;;;19.16;63.76;99897.19;137212;1201;110887;-67
2021/08/28 09:41:32;;;;;;;3.20;2.70;;;;;;;19.42;63.71;99898.88;137191;1202;97653;-66
2021/08/28 09:44:44;;;;;;;3.60;2.40;;;;;;;19.73;63.58;99894.11;137190;1202;96317;-67
2021/08/28 09:47:50;;;;;;;2.30;2.10;;;;;;;19.99;61.67;99893.37;137215;1202;108548;-67
2021/08/28 09:50:57;;;;;;;2.70;2.40;;;;;;;20.10;61.74;99898.71;137169;1203;96375;-65
2021/08/28 09:54:03;;;;;;;2.30;2.00;;;;;;;20.17;61.99;99897.15;137232;1202;109043;-64
2021/08/28 09:57:09;;;;;;;2.90;2.20;;;;;;;20.38;62.62;99897.29;137184;1202;97660;-64
2021/08/28 10:00:15;;;;;;;4.30;2.30;;;;;;;20.54;62.72;99898.98;137214;1201;97270;-64
2021/08/28 10:03:28;;;;;;;2.30;2.10;;;;;;;20.72;62.08;99896.56;137203;1202;108604;-64
2021/08/28 10:06:34;;;;;;;3.20;1.70;;;;;;;20.78;61.27;99892.66;137225;1202;97640;-64
2021/08/28 10:09:39;;;;;;;3.30;2.00;;;;;;;20.86;61.32;99896.39;137199;1201;110846;-66
2021/08/28 10:12:48;;;;;;;3.20;1.90;;;;;;;21.04;60.55;99896.21;137290;1195;96418;-67
2021/08/28 10:15:54;;;;;;;2.00;1.70;;;;;;;21.20;61.13;99890.60;137274;1202;97654;-66
2021/08/28 10:18:59;;;;;;;2.30;2.10;;;;;;;21.39;60.50;99888.88;137209;1201;108645;-67
2021/08/28 10:22:07;;;;;;;2.50;2.10;;;;;;;21.45;58.80;99892.53;137130;1201;97669;-63
2021/08/28 10:25:14;;;;;;;3.30;1.70;;;;;;;21.26;56.56;99890.59;137189;1202;110756;-64
2021/08/28 10:28:21;;;;;;;1.60;1.50;;;;;;;21.04;57.65;99888.04;137210;1202;97261;-64
2021/08/28 10:31:27;;;;;;;2.30;2.00;;;;;;;20.99;58.30;99891.74;137203;1201;97639;-64
2021/08/28 10:34:33;;;;;;;2.40;2.10;;;;;;;20.93;57.21;99893.33;137169;1201;108634;-66
2021/08/28 10:37:39;;;;;;;3.30;2.40;;;;;;;20.88;57.27;99896.07;137161;1202;96339;-68
2021/08/28 10:40:46;;;;;;;8.00;6.30;;;;;;;20.99;58.12;99900.05;137144;1201;109748;-67
2021/08/28 10:43:52;;;;;;;3.60;3.20;;;;;;;21.12;58.23;99893.22;137212;1201;96339;-69
2021/08/28 10:46:57;;;;;;;3.30;2.70;;;;;;;21.22;57.39;99896.95;137255;1202;96356;-69
2021/08/28 10:50:09;;;;;;;2.50;2.00;;;;;;;21.14;57.06;99892.46;137173;1201;108628;-67
2021/08/28 10:53:15;;;;;;;2.60;2.20;;;;;;;21.07;55.61;99893.16;137233;1202;97654;-67
2021/08/28 10:56:20;;;;;;;2.90;2.10;;;;;;;20.90;55.41;99894.77;137132;1202;110741;-68
2021/08/28 10:59:28;;;;;;;8.10;5.90;;;;;;;20.80;55.69;99893.25;137196;1201;96409;-69
2021/08/28 11:02:55;;;;;;;33.50;24.90;;;;;;;20.93;56.84;99894.86;137206;1201;97785;-70
2021/08/28 11:06:24;;;;;;;5.50;4.10;;;;;;;21.09;56.28;99892.40;137140;1202;108427;-69
2021/08/28 11:10:00;;;;;;;3.70;2.90;;;;;;;21.03;54.90;99893.64;137207;1202;96435;-72
2021/08/28 11:13:06;;;;;;;3.30;2.40;;;;;;;20.91;55.81;99895.06;137290;1201;110814;-69
2021/08/28 11:16:32;;;;;;;7.50;5.50;;;;;;;20.93;55.53;99892.45;137218;1202;97666;-68
2021/08/28 11:19:48;;;;;;;79.60;54.20;;;;;;;20.90;56.01;99891.86;137192;1203;97288;-69
2021/08/28 11:22:54;;;;;;;18.80;13.40;;;;;;;20.93;55.68;99897.83;137204;1192;97242;-71
2021/08/28 11:26:01;;;;;;;19.20;13.20;;;;;;;20.91;55.87;99897.95;137154;1201;97660;-68
2021/08/28 11:29:24;;;;;;;5.60;4.50;;;;;;;20.87;55.61;99891.48;137144;1202;110700;-68
2021/08/28 11:32:30;;;;;;;91.60;49.20;;;;;;;20.92;56.33;99895.64;137268;1201;97266;-69
2021/08/28 11:35:39;;;;;;;104.70;65.00;;;;;;;20.99;56.37;99897.62;137204;1202;97667;-70
2021/08/28 11:38:50;;;;;;;89.40;54.40;;;;;;;21.00;55.58;99899.70;137191;1202;108560;-70
2021/08/28 11:42:03;;;;;;;73.70;46.80;;;;;;;20.97;55.79;99898.20;137242;1202;97646;-69
2021/08/28 11:45:11;;;;;;;62.90;41.20;;;;;;;20.97;55.55;99904.79;137228;1201;110836;-69
2021/08/28 11:48:17;;;;;;;17.60;12.60;;;;;;;20.95;54.82;99901.69;137255;1202;96342;-69
2021/08/28 11:51:24;;;;;;;6.60;4.40;;;;;;;20.85;55.41;99905.87;137159;1202;96298;-71
2021/08/28 11:54:31;;;;;;;3.20;2.90;;;;;;;20.81;55.40;99906.92;137198;1201;108538;-71
2021/08/28 11:57:37;;;;;;;3.90;3.20;;;;;;;20.74;54.82;99909.08;137335;1202;97250;-69
2021/08/28 12:00:43;;;;;;;27.70;16.40;;;;;;;20.76;54.07;99907.61;137327;1201;110616;-69
2021/08/28 12:03:48;;;;;;;56.50;31.50;;;;;;;20.82;55.34;99903.16;137100;1202;96354;-69
2021/08/28 12:06:55;;;;;;;13.80;9.20;;;;;;;20.91;55.82;99904.83;137177;1201;97657;-69
2021/08/28 12:10:03;;;;;;;5.50;3.70;;;;;;;21.05;55.18;99902.12;137337;1201;108504;-78
2021/08/28 12:13:08;;;;;;;3.00;2.70;;;;;;;21.08;55.39;99904.88;137357;1201;97758;-71
2021/08/28 12:16:18;;;;;;;42.70;26.50;;;;;;;21.14;55.04;99902.58;137328;1195;110900;-70
2021/08/28 12:19:25;;;;;;;13.60;8.20;;;;;;;21.15;55.46;99897.80;137225;1201;97272;-70
2021/08/28 12:22:31;;;;;;;6.30;5.00;;;;;;;21.24;55.48;99898.96;137262;1201;96762;-69
2021/08/28 12:25:36;;;;;;;6.20;5.00;;;;;;;21.21;55.42;99902.31;137172;1202;108640;-69
2021/08/28 12:28:42;;;;;;;6.70;5.80;;;;;;;21.24;54.83;99907.11;137211;1201;97646;-70
2021/08/28 12:31:55;;;;;;;7.30;6.00;;;;;;;21.23;55.31;99903.33;137144;1201;111758;-69
2021/08/28 12:35:00;;;;;;;10.80;8.60;;;;;;;21.35;55.26;99904.05;137204;1202;97645;-68
2021/08/28 12:38:16;;;;;;;5.20;4.50;;;;;;;21.34;54.84;99904.86;137245;1202;97659;-70
2021/08/28 12:41:21;;;;;;;4.60;4.10;;;;;;;21.31;55.11;99903.20;137247;1202;108465;-70
2021/08/28 12:44:30;;;;;;;3.40;3.10;;;;;;;21.31;54.63;99900.66;137195;1202;97657;-70
2021/08/28 12:47:39;;;;;;;4.90;3.30;;;;;;;21.36;55.02;99902.70;137168;1201;110752;-71
2021/08/28 12:50:45;;;;;;;3.70;3.30;;;;;;;21.44;54.98;99905.15;137380;1202;97664;-73
2021/08/28 12:53:54;;;;;;;5.80;4.40;;;;;;;21.59;54.86;99907.42;137325;1202;96360;-78
2021/08/28 12:57:04;;;;;;;3.20;2.90;;;;;;;21.75;54.75;99906.00;137321;1201;108560;-75
2021/08/28 13:00:11;;;;;;;3.20;2.90;;;;;;;21.71;53.39;99905.21;137377;1202;97265;-71
2021/08/28 13:03:27;;;;;;;5.30;3.20;;;;;;;21.55;54.01;99905.73;137191;1202;109775;-69
2021/08/28 13:06:32;;;;;;;6.20;3.60;;;;;;;21.63;54.39;99907.45;137282;1202;97754;-71
2021/08/28 13:09:48;;;;;;;3.10;2.70;;;;;;;21.68;54.21;99907.36;137221;1202;96350;-70
2021/08/28 13:12:59;;;;;;;3.10;2.60;;;;;;;21.70;54.33;99904.73;137185;1201;110363;-70
2021/08/28 13:16:17;;;;;;;13.10;8.90;;;;;;;21.71;54.09;99902.54;137240;1202;96400;-70
2021/08/28 13:19:32;;;;;;;26.00;16.30;;;;;;;21.64;53.65;99902.80;137183;1202;111013;-70
2021/08/28 13:22:42;;;;;;;21.80;15.80;;;;;;;21.56;54.10;99905.13;137221;1201;96367;-70
2021/08/28 13:25:49;;;;;;;6.80;5.60;;;;;;;21.58;53.84;99900.22;137276;1202;97277;-70
2021/08/28 13:28:54;;;;;;;4.20;3.40;;;;;;;21.68;54.16;99899.85;137252;1201;108659;-68
2021/08/28 13:32:09;;;;;;;3.50;3.20;;;;;;;21.78;53.79;99898.58;137185;1203;97236;-69
2021/08/28 13:35:16;;;;;;;5.50;4.80;;;;;;;21.81;53.93;99895.06;137169;1202;110665;-69
2021/08/28 13:38:23;;;;;;;22.50;14.90;;;;;;;21.77;53.11;99893.34;137180;1203;96432;-69
2021/08/28 13:41:32;;;;;;;5.30;4.80;;;;;;;21.58;53.32;99893.48;137254;1203;97658;-69
2021/08/28 13:44:38;;;;;;;4.10;3.70;;;;;;;21.46;53.45;99894.58;137203;1200;107083;-69
2021/08/28 13:47:43;;;;;;;3.70;2.90;;;;;;;21.41;53.61;99896.23;137216;1203;96464;-69
2021/08/28 13:50:49;;;;;;;28.90;20.90;;;;;;;21.30;53.54;99898.63;137248;1201;110907;-69
2021/08/28 13:53:55;;;;;;;6.10;5.30;;;;;;;21.20;53.33;99899.73;137206;1201;97262;-68
2021/08/28 13:57:01;;;;;;;5.80;4.20;;;;;;;21.07;53.54;99898.84;137191;1195;96441;-68
2021/08/28 14:00:09;;;;;;;4.80;3.40;;;;;;;21.06;53.68;99893.45;137220;1201;108342;-68
2021/08/28 14:03:17;;;;;;;6.70;3.00;;;;;;;21.10;53.98;99893.41;137206;1201;97810;-69
2021/08/28 14:06:23;;;;;;;3.60;3.10;;;;;;;21.19;53.95;99894.95;137149;1202;110708;-69
2021/08/28 14:09:28;;;;;;;4.10;3.10;;;;;;;21.19;53.53;99895.91;137223;1202;97812;-69
2021/08/28 14:12:34;;;;;;;3.80;2.90;;;;;;;21.24;53.92;99898.67;137186;1202;98596;-70
2021/08/28 14:15:39;;;;;;;3.60;2.90;;;;;;;21.29;53.88;99899.57;137189;1201;108526;-69
2021/08/28 14:18:44;;;;;;;4.40;2.70;;;;;;;21.21;52.98;99898.55;137175;1202;97690;-70
2021/08/28 14:21:50;;;;;;;5.10;3.00;;;;;;;21.05;53.34;99897.70;137268;1201;111992;-66
2021/08/28 14:24:56;;;;;;;2.90;2.40;;;;;;;20.94;53.70;99904.25;137181;1201;99007;-69
2021/08/28 14:28:01;;;;;;;2.70;2.40;;;;;;;20.86;53.73;99908.06;137342;1201;97702;-68
2021/08/28 14:31:06;;;;;;;4.20;2.30;;;;;;;20.80;53.82;99905.01;137202;1202;108458;-70
2021/08/28 14:34:12;;;;;;;4.90;2.40;;;;;;;20.71;53.90;99909.38;137188;1202;97679;-70
2021/08/28 14:37:18;;;;;;;4.70;2.80;;;;;;;20.61;54.08;99913.52;137248;1202;112096;-69
2021/08/28 14:40:23;;;;;;;5.10;3.30;;;;;;;20.53;54.33;99913.08;137211;1201;99059;-69